createdAt,value
2019-02-09T00:02:09.525Z,99594.17
2019-02-09T00:04:37.483Z,99584.58
2019-02-09T00:07:05.344Z,99586.76
2019-02-09T00:09:32.975Z,99583.70
2019-02-09T00:12:00.634Z,99571.49
2019-02-09T00:14:28.537Z,99558.37
2019-02-09T00:16:56.408Z,99549.25
2019-02-09T00:19:24.271Z,99550.99
2019-02-09T00:21:52.247Z,99546.16
2019-02-09T00:24:20.211Z,99537.03
2019-02-09T00:26:48.077Z,99532.23
2019-02-09T00:29:16.049Z,99535.28
2019-02-09T00:31:43.917Z,99525.27
2019-02-09T00:34:11.911Z,99528.31
2019-02-09T00:36:39.529Z,99527.87
2019-02-09T00:39:07.414Z,99527.44
2019-02-09T00:41:35.025Z,99523.52
2019-02-09T00:44:02.951Z,99513.05
2019-02-09T00:46:30.813Z,99513.49
2019-02-09T00:48:58.803Z,99515.23
2019-02-09T00:51:26.424Z,99525.27
2019-02-09T00:53:54.046Z,99520.47
2019-02-09T00:56:21.972Z,99527.87
2019-02-09T00:58:49.945Z,99534.86
2019-02-09T01:01:17.808Z,99533.98
2019-02-09T01:03:45.425Z,99527.44
2019-02-09T01:06:13.046Z,99537.04
2019-02-09T01:08:41.004Z,99539.22
2019-02-09T01:11:08.888Z,99545.77
2019-02-09T01:13:36.840Z,99540.97
2019-02-09T01:16:04.813Z,99536.61
2019-02-09T01:18:32.704Z,99536.61
2019-02-09T01:21:00.330Z,99533.55
2019-02-09T01:23:27.941Z,99538.34
2019-02-09T01:25:55.565Z,99536.17
2019-02-09T01:28:23.428Z,99537.91
2019-02-09T01:30:51.401Z,99541.41
2019-02-09T01:33:19.287Z,99536.17
2019-02-09T01:35:47.254Z,99530.50
2019-02-09T01:38:15.210Z,99530.06
2019-02-09T01:40:42.827Z,99531.38
2019-02-09T01:43:10.733Z,99518.29
2019-02-09T01:45:38.604Z,99522.21
2019-02-09T01:48:06.469Z,99506.08
2019-02-09T01:50:34.092Z,99507.81
2019-02-09T01:53:02.016Z,99509.56
2019-02-09T01:55:30.068Z,99505.20
2019-02-09T01:57:57.939Z,99505.20
2019-02-09T02:00:25.907Z,99496.48
2019-02-09T02:02:54.288Z,99490.80
2019-02-09T02:05:22.272Z,99495.17
2019-02-09T02:07:50.223Z,99486.88
2019-02-09T02:10:17.865Z,99482.95
2019-02-09T02:12:45.760Z,99490.37
2019-02-09T02:15:13.742Z,99481.69
2019-02-09T02:17:41.696Z,99473.80
2019-02-09T02:20:09.317Z,99475.54
2019-02-09T02:22:37.224Z,99458.53
2019-02-09T02:25:05.094Z,99459.41
2019-02-09T02:27:32.718Z,99441.52
2019-02-09T02:30:00.636Z,99434.55
2019-02-09T02:32:28.609Z,99432.36
2019-02-09T02:34:56.461Z,99429.30
2019-02-09T02:37:24.101Z,99412.73
2019-02-09T02:39:51.990Z,99401.88
2019-02-09T02:42:19.957Z,99390.94
2019-02-09T02:44:47.576Z,99384.39
2019-02-09T02:47:15.509Z,99380.02
2019-02-09T02:49:43.475Z,99396.17
2019-02-09T02:52:11.440Z,99385.70
2019-02-09T02:54:39.052Z,99377.84
2019-02-09T02:57:06.957Z,99364.76
2019-02-09T02:59:34.574Z,99368.69
2019-02-09T03:02:02.501Z,99356.45
2019-02-09T03:04:30.348Z,99359.96
2019-02-09T03:06:58.220Z,99363.45
2019-02-09T03:09:26.105Z,99353.42
2019-02-09T03:11:54.055Z,99350.80
2019-02-09T03:14:21.664Z,99345.56
2019-02-09T03:16:49.586Z,99341.22
2019-02-09T03:19:19.161Z,99338.59
2019-02-09T03:21:46.870Z,99342.09
2019-02-09T03:24:14.823Z,99346.88
2019-02-09T03:26:42.446Z,99350.38
2019-02-09T03:29:10.379Z,99351.23
2019-02-09T03:31:38.332Z,99355.59
2019-02-09T03:34:05.946Z,99360.82
2019-02-09T03:36:33.855Z,99359.96
2019-02-09T03:39:01.468Z,99363.01
2019-02-09T03:41:29.082Z,99368.24
2019-02-09T03:43:56.943Z,99371.29
2019-02-09T03:46:24.563Z,99379.58
2019-02-09T03:48:53.975Z,99374.35
2019-02-09T03:51:22.097Z,99380.45
2019-02-09T03:53:50.054Z,99375.66
2019-02-09T03:56:18.039Z,99370.47
2019-02-09T03:58:45.994Z,99373.48
2019-02-09T04:01:13.957Z,99371.31
2019-02-09T04:03:41.570Z,99362.58
2019-02-09T04:06:09.188Z,99368.25
2019-02-09T04:08:37.066Z,99367.38
2019-02-09T04:11:04.696Z,99372.66
2019-02-09T04:13:32.600Z,99369.56
2019-02-09T04:16:00.208Z,99361.71
2019-02-09T04:18:28.109Z,99350.80
2019-02-09T04:20:55.981Z,99346.88
2019-02-09T04:23:23.598Z,99346.45
2019-02-09T04:25:51.214Z,99346.00
2019-02-09T04:28:19.172Z,99342.09
2019-02-09T04:30:47.032Z,99339.89
2019-02-09T04:33:14.654Z,99327.25
2019-02-09T04:35:42.264Z,99317.21
2019-02-09T04:38:10.230Z,99316.78
2019-02-09T04:40:38.092Z,99320.27
2019-02-09T04:43:05.959Z,99305.89
2019-02-09T04:45:33.853Z,99313.73
2019-02-09T04:48:01.801Z,99308.05
2019-02-09T04:50:29.668Z,99305.44
2019-02-09T04:52:57.641Z,99293.23
2019-02-09T04:55:25.291Z,99300.64
2019-02-09T04:57:52.895Z,99293.67
2019-02-09T05:00:20.826Z,99294.10
2019-02-09T05:02:48.796Z,99275.80
2019-02-09T05:05:16.480Z,99277.95
2019-02-09T05:07:44.427Z,99261.87
2019-02-09T05:10:12.319Z,99264.45
2019-02-09T05:12:40.264Z,99246.13
2019-02-09T05:15:08.138Z,99255.73
2019-02-09T05:17:36.105Z,99249.17
2019-02-09T05:20:03.970Z,99260.52
2019-02-09T05:22:31.584Z,99250.48
2019-02-09T05:24:59.200Z,99246.98
2019-02-09T05:27:27.180Z,99250.03
2019-02-09T05:29:55.048Z,99244.73
2019-02-09T05:32:22.666Z,99232.09
2019-02-09T05:34:50.356Z,99243.42
2019-02-09T05:37:17.976Z,99227.72
2019-02-09T05:39:45.600Z,99232.03
2019-02-09T05:42:13.212Z,99230.30
2019-02-09T05:44:40.828Z,99229.45
2019-02-09T05:47:08.768Z,99232.89
2019-02-09T05:49:36.461Z,99245.10
2019-02-09T05:52:04.402Z,99242.05
2019-02-09T05:54:32.300Z,99226.35
2019-02-09T05:56:59.910Z,99242.92
2019-02-09T05:59:27.797Z,99243.36
2019-02-09T06:01:55.764Z,99246.41
2019-02-09T06:04:23.633Z,99246.41
2019-02-09T06:06:52.116Z,99239.44
2019-02-09T06:09:19.734Z,99248.59
2019-02-09T06:11:47.672Z,99239.87
2019-02-09T06:14:15.285Z,99243.36
2019-02-09T06:16:43.200Z,99242.05
2019-02-09T06:19:11.147Z,99245.98
2019-02-09T06:21:38.759Z,99252.95
2019-02-09T06:24:06.678Z,99260.81
2019-02-09T06:26:34.545Z,99263.38
2019-02-09T06:29:02.516Z,99256.39
2019-02-09T06:31:30.378Z,99262.05
2019-02-09T06:33:58.249Z,99252.52
2019-02-09T06:36:26.132Z,99245.97
2019-02-09T06:38:54.097Z,99246.84
2019-02-09T06:41:22.052Z,99256.83
2019-02-09T06:43:50.031Z,99266.47
2019-02-09T06:46:17.639Z,99278.24
2019-02-09T06:48:45.549Z,99282.13
2019-02-09T06:51:13.167Z,99277.37
2019-02-09T06:53:40.778Z,99251.20
2019-02-09T06:56:08.640Z,99255.14
2019-02-09T06:58:36.629Z,99259.49
2019-02-09T07:01:04.582Z,99251.64
2019-02-09T07:03:32.551Z,99264.28
2019-02-09T07:06:00.412Z,99284.36
2019-02-09T07:08:28.031Z,99293.03
2019-02-09T07:10:55.949Z,99299.18
2019-02-09T07:13:23.917Z,99297.44
2019-02-09T07:15:51.910Z,99293.96
2019-02-09T07:18:19.852Z,99286.55
2019-02-09T07:20:47.725Z,99285.23
2019-02-09T07:23:15.711Z,99293.96
2019-02-09T07:25:43.355Z,99294.83
2019-02-09T07:28:10.959Z,99303.98
2019-02-09T07:30:38.576Z,99299.20
2019-02-09T07:33:06.206Z,99297.44
2019-02-09T07:35:33.836Z,99293.52
2019-02-09T07:38:01.769Z,99290.47
2019-02-09T07:40:29.388Z,99284.36
2019-02-09T07:42:57.013Z,99297.31
2019-02-09T07:45:24.960Z,99293.84
2019-02-09T07:47:52.583Z,99292.58
2019-02-09T07:50:20.492Z,99291.72
2019-02-09T07:52:48.372Z,99286.92
2019-02-09T07:55:16.232Z,99293.47
2019-02-09T07:57:44.101Z,99291.72
2019-02-09T08:00:11.725Z,99285.18
2019-02-09T08:02:39.624Z,99293.47
2019-02-09T08:05:07.588Z,99277.39
2019-02-09T08:07:35.456Z,99289.59
2019-02-09T08:10:03.088Z,99287.42
2019-02-09T08:12:30.709Z,99294.39
2019-02-09T08:14:58.670Z,99317.52
2019-02-09T08:17:26.280Z,99308.34
2019-02-09T08:19:53.907Z,99301.38
2019-02-09T08:22:21.839Z,99311.35
2019-02-09T08:24:49.815Z,99302.68
2019-02-09T08:27:23.475Z,99314.02
2019-02-09T08:29:47.286Z,99313.15
2019-02-09T08:32:14.908Z,99316.59
2019-02-09T08:34:42.816Z,99333.20
2019-02-09T08:37:10.685Z,99318.82
2019-02-09T08:39:38.665Z,99313.58
2019-02-09T08:42:06.524Z,99326.62
2019-02-09T08:44:34.490Z,99330.59
2019-02-09T08:47:02.362Z,99337.97
2019-02-09T08:49:29.978Z,99332.70
2019-02-09T08:51:57.893Z,99357.58
2019-02-09T08:54:25.855Z,99329.66
2019-02-09T08:56:53.467Z,99341.88
2019-02-09T08:59:21.095Z,99344.29
2019-02-09T09:01:48.712Z,99356.33
2019-02-09T09:04:16.607Z,99343.17
2019-02-09T09:06:44.231Z,99353.34
2019-02-09T09:09:12.144Z,99337.70
2019-02-09T09:11:40.022Z,99325.97
2019-02-09T09:14:07.975Z,99322.92
2019-02-09T09:16:35.593Z,99315.08
2019-02-09T09:19:03.503Z,99306.83
2019-02-09T09:21:31.392Z,99317.53
2019-02-09T09:23:59.021Z,99325.35
2019-02-09T09:26:26.641Z,99328.34
2019-02-09T09:28:54.353Z,99335.64
2019-02-09T09:31:22.227Z,99345.17
2019-02-09T09:33:49.842Z,99330.76
2019-02-09T09:36:17.461Z,99328.66
2019-02-09T09:38:45.083Z,99318.61
2019-02-09T09:41:12.998Z,99316.43
2019-02-09T09:43:40.616Z,99313.77
2019-02-09T09:46:08.316Z,99328.58
2019-02-09T09:48:36.272Z,99337.69
2019-02-09T09:51:04.259Z,99343.30
2019-02-09T09:53:31.860Z,99353.75
2019-02-09T09:55:59.773Z,99346.78
2019-02-09T09:58:27.742Z,99351.13
2019-02-09T10:00:55.714Z,99348.52
2019-02-09T10:03:23.682Z,99354.15
2019-02-09T10:05:51.650Z,99359.75
2019-02-09T10:08:19.261Z,99352.34
2019-02-09T10:10:46.886Z,99351.84
2019-02-09T10:13:14.506Z,99350.02
2019-02-09T10:15:42.134Z,99363.22
2019-02-09T10:18:09.752Z,99374.20
2019-02-09T10:20:37.630Z,99359.39
2019-02-09T10:23:05.493Z,99351.30
2019-02-09T10:25:33.480Z,99366.47
2019-02-09T10:28:01.449Z,99359.76
2019-02-09T10:30:29.403Z,99363.77
2019-02-09T10:32:57.375Z,99364.38
2019-02-09T10:35:25.346Z,99370.84
2019-02-09T10:37:53.317Z,99372.84
2019-02-09T10:40:20.927Z,99368.05
2019-02-09T10:42:48.545Z,99378.37
2019-02-09T10:45:16.505Z,99393.95
2019-02-09T10:47:44.476Z,99403.99
2019-02-09T10:50:12.101Z,99419.80
2019-02-09T10:52:39.711Z,99413.17
2019-02-09T10:55:07.671Z,99423.28
2019-02-09T10:57:35.635Z,99416.28
2019-02-09T11:00:03.607Z,99411.37
2019-02-09T11:02:31.581Z,99422.21
2019-02-09T11:04:59.544Z,99429.73
2019-02-09T11:07:27.164Z,99427.33
2019-02-09T11:09:55.078Z,99424.77
2019-02-09T11:12:22.704Z,99429.44
2019-02-09T11:14:50.607Z,99426.11
2019-02-09T11:17:18.488Z,99423.91
2019-02-09T11:19:46.869Z,99446.23
2019-02-09T11:22:14.431Z,99430.81
2019-02-09T11:24:42.071Z,99426.87
2019-02-09T11:27:09.950Z,99431.55
2019-02-09T11:29:37.908Z,99431.75
2019-02-09T11:32:05.779Z,99423.48
2019-02-09T11:34:33.754Z,99434.98
2019-02-09T11:37:01.717Z,99427.81
2019-02-09T11:39:30.648Z,99432.88
2019-02-09T11:41:58.688Z,99449.40
2019-02-09T11:44:26.301Z,99446.28
2019-02-09T11:46:53.927Z,99439.58
2019-02-09T11:49:21.872Z,99437.77
2019-02-09T11:51:50.217Z,99436.45
2019-02-09T11:54:18.369Z,99450.31
2019-02-09T11:56:46.294Z,99449.74
2019-02-09T11:59:14.163Z,99451.20
2019-02-09T12:01:41.783Z,99445.19
2019-02-09T12:04:09.705Z,99442.39
2019-02-09T12:06:37.332Z,99441.53
2019-02-09T12:09:05.064Z,99440.18
2019-02-09T12:11:33.003Z,99446.67
2019-02-09T12:14:00.611Z,99451.34
2019-02-09T12:16:28.513Z,99461.70
2019-02-09T12:18:56.125Z,99454.20
2019-02-09T12:21:23.798Z,99462.05
2019-02-09T12:23:51.708Z,99464.12
2019-02-09T12:26:19.673Z,99465.41
2019-02-09T12:28:47.290Z,99470.64
2019-02-09T12:31:14.903Z,99471.02
2019-02-09T12:33:42.518Z,99461.39
2019-02-09T12:36:10.424Z,99459.61
2019-02-09T12:38:38.299Z,99459.58
2019-02-09T12:41:06.265Z,99451.63
2019-02-09T12:43:34.252Z,99454.05
2019-02-09T12:46:02.212Z,99455.30
2019-02-09T12:48:30.175Z,99445.34
2019-02-09T12:50:58.142Z,99448.86
2019-02-09T12:53:26.115Z,99447.66
2019-02-09T12:55:54.081Z,99442.99
2019-02-09T12:58:21.950Z,99447.38
2019-02-09T13:00:49.926Z,99445.97
2019-02-09T13:05:10.445Z,99464.90
2019-02-09T13:07:38.414Z,99467.48
2019-02-09T13:10:06.375Z,99465.34
2019-02-09T13:12:34.374Z,99463.98
2019-02-09T13:15:02.308Z,99468.50
2019-02-09T13:17:29.947Z,99472.05
2019-02-09T13:19:57.616Z,99473.78
2019-02-09T13:42:10.281Z,99465.72
2019-02-09T13:44:38.352Z,99490.59
2019-02-09T13:47:05.976Z,99502.52
2019-02-09T13:49:33.881Z,99502.08
2019-02-09T13:52:02.267Z,99503.21
2019-02-09T13:54:29.958Z,99514.28
2019-02-09T13:56:57.577Z,99501.03
2019-02-09T13:59:25.197Z,99493.53
2019-02-09T14:01:52.834Z,99491.83
2019-02-09T14:04:20.805Z,99514.84
2019-02-09T14:06:48.744Z,99493.98
2019-02-09T14:09:16.617Z,99501.33
2019-02-09T14:11:44.485Z,99500.45
2019-02-09T14:14:12.346Z,99508.71
2019-02-09T14:16:40.234Z,99510.45
2019-02-09T14:19:08.082Z,99515.52
2019-02-09T14:21:35.954Z,99508.13
2019-02-09T14:24:03.834Z,99507.53
2019-02-09T14:26:31.793Z,99510.98
2019-02-09T14:28:59.400Z,99508.55
2019-02-09T14:31:27.322Z,99513.72
2019-02-09T14:33:55.492Z,99509.34
2019-02-09T14:36:23.359Z,99523.72
2019-02-09T14:38:50.968Z,99517.08
2019-02-09T14:41:18.586Z,99528.37
2019-02-09T14:43:46.449Z,99532.30
2019-02-09T14:46:14.056Z,99540.92
2019-02-09T14:48:41.671Z,99529.36
2019-02-09T14:51:09.291Z,99533.53
2019-02-09T14:53:37.199Z,99538.44
2019-02-09T14:56:04.819Z,99538.77
2019-02-09T14:58:32.753Z,99539.30
2019-02-09T15:01:00.344Z,99544.23
2019-02-09T15:03:30.631Z,99549.84
2019-02-09T15:05:57.343Z,99546.58
2019-02-09T15:08:25.226Z,99548.45
2019-02-09T15:10:53.194Z,99527.30
2019-02-09T15:13:20.817Z,99540.54
2019-02-09T15:15:48.719Z,99525.81
2019-02-09T15:18:16.345Z,99531.84
2019-02-09T15:20:44.257Z,99534.48
2019-02-09T15:23:11.875Z,99533.31
2019-02-09T15:25:39.783Z,99536.92
2019-02-09T15:28:07.409Z,99539.25
2019-02-09T15:30:35.012Z,99543.47
2019-02-09T15:33:02.630Z,99536.80
2019-02-09T15:35:30.552Z,99548.00
2019-02-09T15:37:58.235Z,99553.38
2019-02-09T15:40:25.835Z,99557.25
2019-02-09T15:42:53.728Z,99559.34
2019-02-09T15:45:21.599Z,99559.47
2019-02-09T15:47:49.585Z,99558.70
2019-02-09T15:50:17.552Z,99571.01
2019-02-09T15:52:45.510Z,99573.95
2019-02-09T15:55:13.374Z,99576.02
2019-02-09T15:57:41.352Z,99568.09
2019-02-09T16:00:09.308Z,99571.06
2019-02-09T16:02:36.936Z,99577.43
2019-02-09T16:05:04.843Z,99573.84
2019-02-09T16:07:32.459Z,99573.92
2019-02-09T16:10:00.100Z,99579.46
2019-02-09T16:12:28.030Z,99587.34
2019-02-09T16:14:55.902Z,99578.30
2019-02-09T16:17:23.510Z,99585.84
2019-02-09T16:19:51.128Z,99582.80
2019-02-09T16:22:18.735Z,99591.89
2019-02-09T16:24:46.655Z,99585.39
2019-02-09T16:27:14.267Z,99592.13
2019-02-09T16:29:42.182Z,99590.22
2019-02-09T16:32:09.804Z,99588.03
2019-02-09T16:34:37.728Z,99593.44
2019-02-09T16:37:05.681Z,99589.61
2019-02-09T16:39:33.650Z,99598.39
2019-02-09T16:42:01.278Z,99596.30
2019-02-09T16:44:29.179Z,99598.20
2019-02-09T16:46:57.053Z,99590.67
2019-02-09T16:49:24.667Z,99598.22
2019-02-09T16:51:52.573Z,99605.76
2019-02-09T16:54:20.550Z,99606.94
2019-02-09T16:56:48.417Z,99616.20
2019-02-09T16:59:16.034Z,99605.65
2019-02-09T17:01:43.648Z,99616.58
2019-02-09T17:04:11.625Z,99618.64
2019-02-09T17:06:39.574Z,99618.14
2019-02-09T17:09:07.545Z,99617.34
2019-02-09T17:11:35.420Z,99624.73
2019-02-09T17:14:03.382Z,99626.67
2019-02-09T17:16:31.247Z,99626.52
2019-02-09T17:18:59.223Z,99629.94
2019-02-09T17:21:27.191Z,99635.02
2019-02-09T17:23:54.811Z,99629.30
2019-02-09T17:26:22.715Z,99628.50
2019-02-09T17:28:50.335Z,99642.11
2019-02-09T17:31:18.249Z,99643.77
2019-02-09T17:33:46.236Z,99646.53
2019-02-09T17:36:14.186Z,99642.08
2019-02-09T17:38:41.802Z,99645.95
2019-02-09T17:41:09.411Z,99637.89
2019-02-09T17:43:37.346Z,99650.61
2019-02-09T17:46:05.243Z,99643.36
2019-02-09T17:48:33.220Z,99643.30
2019-02-09T17:51:00.844Z,99648.91
2019-02-09T17:53:28.746Z,99653.16
2019-02-09T17:55:56.361Z,99652.59
2019-02-09T17:58:24.274Z,99644.88
2019-02-09T18:00:56.851Z,99656.15
2019-02-09T18:03:24.829Z,99652.64
2019-02-09T18:05:52.794Z,99646.34
2019-02-09T18:08:20.663Z,99643.59
2019-02-09T18:10:48.528Z,99639.30
2019-02-09T18:13:16.394Z,99648.22
2019-02-09T18:15:44.009Z,99654.59
2019-02-09T18:18:11.924Z,99650.84
2019-02-09T18:20:39.913Z,99648.78
2019-02-09T18:23:07.864Z,99651.17
2019-02-09T18:25:35.835Z,99643.55
2019-02-09T18:28:03.715Z,99643.47
2019-02-09T18:30:31.324Z,99648.91
2019-02-09T18:32:59.248Z,99637.65
2019-02-09T18:35:27.202Z,99640.23
2019-02-09T18:37:55.074Z,99651.56
2019-02-09T18:40:22.691Z,99648.27
2019-02-09T18:42:50.597Z,99650.37
2019-02-09T18:45:18.583Z,99657.44
2019-02-09T18:47:46.547Z,99644.53
2019-02-09T18:50:14.405Z,99650.37
2019-02-09T18:52:42.377Z,99648.22
2019-02-09T18:55:09.992Z,99652.80
2019-02-09T18:57:37.600Z,99647.62
2019-02-09T19:00:05.217Z,99648.43
2019-02-09T19:02:38.335Z,99653.58
2019-02-09T19:05:04.266Z,99658.47
2019-02-09T19:07:31.450Z,99654.05
2019-02-09T19:09:59.393Z,99657.09
2019-02-09T19:12:27.357Z,99653.68
2019-02-09T19:14:55.225Z,99655.91
2019-02-09T19:17:23.108Z,99658.26
2019-02-09T19:19:51.060Z,99661.86
2019-02-09T19:22:20.391Z,99660.42
2019-02-09T19:24:48.164Z,99672.30
2019-02-09T19:27:16.095Z,99669.31
2019-02-09T19:29:43.964Z,99669.67
2019-02-09T19:32:11.831Z,99666.59
2019-02-09T19:34:40.112Z,99667.26
2019-02-09T19:37:08.096Z,99673.58
2019-02-09T19:39:36.050Z,99671.41
2019-02-09T19:42:04.022Z,99666.02
2019-02-09T19:44:31.989Z,99671.27
2019-02-09T19:46:59.955Z,99664.47
2019-02-09T19:49:27.825Z,99670.39
2019-02-09T19:51:55.691Z,99669.65
2019-02-09T19:54:23.561Z,99676.17
2019-02-09T19:56:51.527Z,99679.48
2019-02-09T19:59:19.405Z,99682.06
2019-02-09T20:01:47.470Z,99677.97
2019-02-09T20:04:15.336Z,99669.56
2019-02-09T20:06:43.306Z,99673.02
2019-02-09T20:09:11.993Z,99679.25
2019-02-09T20:11:39.617Z,99680.45
2019-02-09T20:14:07.521Z,99677.07
2019-02-09T20:16:35.410Z,99669.93
2019-02-09T20:19:03.019Z,99690.70
2019-02-09T20:21:30.919Z,99685.41
2019-02-09T20:23:58.525Z,99689.11
2019-02-09T20:26:26.148Z,99690.84
2019-02-09T20:28:53.930Z,99694.41
2019-02-09T20:31:21.877Z,99693.63
2019-02-09T20:33:49.497Z,99691.06
2019-02-09T20:36:17.102Z,99682.11
2019-02-09T20:38:44.714Z,99689.45
2019-02-09T20:41:12.680Z,99686.97
2019-02-09T20:43:40.599Z,99689.53
2019-02-09T20:46:08.484Z,99684.39
2019-02-09T20:48:36.091Z,99695.09
2019-02-09T20:51:03.990Z,99692.11
2019-02-09T20:53:31.965Z,99694.81
2019-02-09T20:55:59.830Z,99695.30
2019-02-09T20:58:27.803Z,99700.09
2019-02-09T21:00:55.668Z,99697.34
2019-02-09T21:03:23.553Z,99707.54
2019-02-09T21:05:51.502Z,99707.94
2019-02-09T21:08:19.476Z,99707.30
2019-02-09T21:10:47.170Z,99713.56
2019-02-09T21:13:14.779Z,99717.58
2019-02-09T21:15:42.666Z,99725.10
2019-02-09T21:18:10.537Z,99729.95
2019-02-09T21:20:38.523Z,99723.23
2019-02-09T21:23:06.206Z,99726.47
2019-02-09T21:25:34.136Z,99729.75
2019-02-09T21:28:01.751Z,99737.23
2019-02-09T21:30:29.664Z,99731.07
2019-02-09T21:32:57.634Z,99738.14
2019-02-09T21:35:25.504Z,99745.22
2019-02-09T21:37:53.121Z,99749.50
2019-02-09T21:40:21.034Z,99745.17
2019-02-09T21:42:49.019Z,99756.87
2019-02-09T21:45:16.972Z,99759.86
2019-02-09T21:47:44.940Z,99764.19
2019-02-09T21:50:12.569Z,99766.24
2019-02-09T21:52:40.178Z,99764.81
2019-02-09T21:55:08.132Z,99765.45
2019-02-09T21:57:35.996Z,99772.44
2019-02-09T22:00:03.876Z,99767.59
2019-02-09T22:02:31.847Z,99767.02
2019-02-09T22:05:00.346Z,99761.41
2019-02-09T22:07:28.390Z,99770.06
2019-02-09T22:09:56.260Z,99760.03
2019-02-09T22:12:24.263Z,99757.77
2019-02-09T22:14:52.198Z,99766.70
2019-02-09T22:17:19.948Z,99765.66
2019-02-09T22:19:47.658Z,99762.60
2019-02-09T22:22:15.595Z,99762.52
2019-02-09T22:24:43.202Z,99756.07
2019-02-09T22:27:11.144Z,99768.16
2019-02-09T22:29:39.101Z,99765.96
2019-02-09T22:32:07.065Z,99764.31
2019-02-09T22:34:34.683Z,99768.69
2019-02-09T22:37:02.597Z,99766.93
2019-02-09T22:39:30.561Z,99762.18
2019-02-09T22:41:58.451Z,99761.19
2019-02-09T22:44:26.400Z,99765.15
2019-02-09T22:46:54.271Z,99774.84
2019-02-09T22:49:22.243Z,99770.30
2019-02-09T22:51:49.848Z,99769.80
2019-02-09T22:54:17.476Z,99757.55
2019-02-09T22:56:45.079Z,99766.48
2019-02-09T22:59:12.687Z,99762.79
2019-02-09T23:01:40.296Z,99761.67
2019-02-09T23:04:07.907Z,99757.03
2019-02-09T23:06:35.768Z,99763.47
2019-02-09T23:09:04.663Z,99760.41
2019-02-09T23:11:32.664Z,99756.86
2019-02-09T23:14:00.271Z,99759.90
2019-02-09T23:16:27.884Z,99764.08
2019-02-09T23:18:55.830Z,99765.73
2019-02-09T23:21:23.689Z,99760.95
2019-02-09T23:23:51.662Z,99754.17
2019-02-09T23:26:19.312Z,99759.08
2019-02-09T23:28:46.886Z,99767.63
2019-02-09T23:31:14.490Z,99771.98
2019-02-09T23:33:42.110Z,99773.61
2019-02-09T23:36:16.150Z,99776.69
2019-02-09T23:38:39.582Z,99771.09
2019-02-09T23:41:07.446Z,99780.55
2019-02-09T23:43:35.420Z,99775.64
2019-02-09T23:46:03.289Z,99772.59
2019-02-09T23:48:31.255Z,99772.78
2019-02-09T23:50:59.122Z,99764.29
2019-02-09T23:53:27.107Z,99766.05
2019-02-09T23:55:55.064Z,99776.02
2019-02-09T23:58:23.028Z,99772.04
